sensor_id;sensor_type;location;lat;lon;timestamp;P1;durP1;ratioP1;P2;durP2;ratioP2
70683;SDS011;58263;48.146;11.440;2022-09-13T00:00:37;3.65;;;2.67;;
70683;SDS011;58263;48.146;11.440;2022-09-13T00:03:03;3.67;;;2.42;;
70683;SDS011;58263;48.146;11.440;2022-09-13T00:05:29;2.85;;;2.08;;
70683;SDS011;58263;48.146;11.440;2022-09-13T00:07:55;2.42;;;2.22;;
70683;SDS011;58263;48.146;11.440;2022-09-13T00:10:21;4.50;;;2.38;;
70683;SDS011;58263;48.146;11.440;2022-09-13T00:12:47;4.35;;;2.45;;
70683;SDS011;58263;48.146;11.440;2022-09-13T00:15:13;4.47;;;2.47;;
70683;SDS011;58263;48.146;11.440;2022-09-13T00:17:39;2.63;;;2.42;;
70683;SDS011;58263;48.146;11.440;2022-09-13T00:20:04;3.47;;;2.37;;
70683;SDS011;58263;48.146;11.440;2022-09-13T00:22:30;2.35;;;2.05;;
70683;SDS011;58263;48.146;11.440;2022-09-13T00:24:56;2.92;;;2.47;;
70683;SDS011;58263;48.146;11.440;2022-09-13T00:27:21;2.33;;;2.10;;
70683;SDS011;58263;48.146;11.440;2022-09-13T00:29:46;4.07;;;2.57;;
70683;SDS011;58263;48.146;11.440;2022-09-13T00:32:11;3.67;;;2.17;;
70683;SDS011;58263;48.146;11.440;2022-09-13T00:34:37;3.15;;;2.40;;
70683;SDS011;58263;48.146;11.440;2022-09-13T00:37:02;3.83;;;2.75;;
70683;SDS011;58263;48.146;11.440;2022-09-13T00:39:28;3.42;;;2.05;;
70683;SDS011;58263;48.146;11.440;2022-09-13T00:41:53;3.30;;;2.10;;
70683;SDS011;58263;48.146;11.440;2022-09-13T00:47:45;2.50;;;2.20;;
70683;SDS011;58263;48.146;11.440;2022-09-13T00:52:54;2.97;;;2.30;;
70683;SDS011;58263;48.146;11.440;2022-09-13T00:55:46;3.03;;;2.22;;
70683;SDS011;58263;48.146;11.440;2022-09-13T00:58:18;3.58;;;2.33;;
70683;SDS011;58263;48.146;11.440;2022-09-13T01:00:49;3.10;;;2.22;;
70683;SDS011;58263;48.146;11.440;2022-09-13T01:03:17;5.30;;;2.20;;
70683;SDS011;58263;48.146;11.440;2022-09-13T01:05:47;3.58;;;2.15;;
70683;SDS011;58263;48.146;11.440;2022-09-13T01:08:22;4.72;;;2.38;;
70683;SDS011;58263;48.146;11.440;2022-09-13T01:10:49;4.30;;;2.45;;
70683;SDS011;58263;48.146;11.440;2022-09-13T01:13:19;5.90;;;2.10;;
70683;SDS011;58263;48.146;11.440;2022-09-13T01:15:47;2.10;;;1.90;;
70683;SDS011;58263;48.146;11.440;2022-09-13T01:18:12;4.65;;;3.00;;
70683;SDS011;58263;48.146;11.440;2022-09-13T01:37:56;3.10;;;2.28;;
70683;SDS011;58263;48.146;11.440;2022-09-13T01:40:48;3.47;;;2.33;;
70683;SDS011;58263;48.146;11.440;2022-09-13T01:51:46;3.40;;;1.90;;
70683;SDS011;58263;48.146;11.440;2022-09-13T01:57:09;2.60;;;2.10;;
70683;SDS011;58263;48.146;11.440;2022-09-13T01:59:51;5.32;;;2.20;;
70683;SDS011;58263;48.146;11.440;2022-09-13T02:02:25;2.92;;;2.00;;
70683;SDS011;58263;48.146;11.440;2022-09-13T02:05:23;4.18;;;1.92;;
70683;SDS011;58263;48.146;11.440;2022-09-13T02:07:56;3.85;;;2.50;;
70683;SDS011;58263;48.146;11.440;2022-09-13T02:10:33;2.40;;;2.20;;
70683;SDS011;58263;48.146;11.440;2022-09-13T02:13:04;4.40;;;1.90;;
70683;SDS011;58263;48.146;11.440;2022-09-13T02:15:36;2.25;;;1.90;;
70683;SDS011;58263;48.146;11.440;2022-09-13T02:18:08;2.45;;;1.73;;
70683;SDS011;58263;48.146;11.440;2022-09-13T02:20:43;2.28;;;2.00;;
70683;SDS011;58263;48.146;11.440;2022-09-13T02:23:12;2.38;;;1.92;;
70683;SDS011;58263;48.146;11.440;2022-09-13T02:25:41;2.28;;;1.90;;
70683;SDS011;58263;48.146;11.440;2022-09-13T02:28:10;3.47;;;2.28;;
70683;SDS011;58263;48.146;11.440;2022-09-13T02:30:42;2.67;;;2.28;;
70683;SDS011;58263;48.146;11.440;2022-09-13T02:33:14;2.60;;;2.40;;
70683;SDS011;58263;48.146;11.440;2022-09-13T02:38:29;2.38;;;2.17;;
70683;SDS011;58263;48.146;11.440;2022-09-13T02:41:02;2.80;;;2.20;;
70683;SDS011;58263;48.146;11.440;2022-09-13T02:43:35;5.22;;;2.35;;
70683;SDS011;58263;48.146;11.440;2022-09-13T02:46:11;2.30;;;2.00;;
70683;SDS011;58263;48.146;11.440;2022-09-13T02:49:06;2.67;;;1.88;;
70683;SDS011;58263;48.146;11.440;2022-09-13T02:57:31;3.70;;;2.58;;
70683;SDS011;58263;48.146;11.440;2022-09-13T03:00:03;3.50;;;2.10;;
70683;SDS011;58263;48.146;11.440;2022-09-13T03:02:32;3.28;;;2.47;;
70683;SDS011;58263;48.146;11.440;2022-09-13T03:05:01;4.53;;;2.03;;
70683;SDS011;58263;48.146;11.440;2022-09-13T03:07:27;4.60;;;2.25;;
70683;SDS011;58263;48.146;11.440;2022-09-13T03:10:00;2.42;;;2.22;;
70683;SDS011;58263;48.146;11.440;2022-09-13T03:23:22;3.17;;;1.98;;
70683;SDS011;58263;48.146;11.440;2022-09-13T03:25:57;5.13;;;2.38;;
70683;SDS011;58263;48.146;11.440;2022-09-13T03:28:48;2.30;;;2.10;;
70683;SDS011;58263;48.146;11.440;2022-09-13T03:31:26;3.70;;;2.38;;
70683;SDS011;58263;48.146;11.440;2022-09-13T03:34:25;4.60;;;2.30;;
70683;SDS011;58263;48.146;11.440;2022-09-13T03:36:54;2.88;;;1.95;;
70683;SDS011;58263;48.146;11.440;2022-09-13T03:39:34;2.90;;;2.05;;
70683;SDS011;58263;48.146;11.440;2022-09-13T03:42:08;2.38;;;2.10;;
70683;SDS011;58263;48.146;11.440;2022-09-13T03:44:40;2.03;;;1.83;;
70683;SDS011;58263;48.146;11.440;2022-09-13T03:47:08;4.20;;;1.75;;
70683;SDS011;58263;48.146;11.440;2022-09-13T03:49:35;2.92;;;1.98;;
70683;SDS011;58263;48.146;11.440;2022-09-13T03:52:03;3.20;;;2.05;;
70683;SDS011;58263;48.146;11.440;2022-09-13T03:54:29;3.60;;;1.75;;
70683;SDS011;58263;48.146;11.440;2022-09-13T03:59:36;3.40;;;2.25;;
70683;SDS011;58263;48.146;11.440;2022-09-13T04:02:04;1.95;;;1.80;;
70683;SDS011;58263;48.146;11.440;2022-09-13T04:04:31;2.85;;;2.08;;
70683;SDS011;58263;48.146;11.440;2022-09-13T04:06:57;3.10;;;1.90;;
70683;SDS011;58263;48.146;11.440;2022-09-13T04:09:27;4.85;;;2.10;;
70683;SDS011;58263;48.146;11.440;2022-09-13T04:11:52;3.33;;;1.77;;
70683;SDS011;58263;48.146;11.440;2022-09-13T04:14:17;1.97;;;1.60;;
70683;SDS011;58263;48.146;11.440;2022-09-13T04:16:43;3.83;;;2.50;;
70683;SDS011;58263;48.146;11.440;2022-09-13T04:19:08;2.22;;;1.85;;
70683;SDS011;58263;48.146;11.440;2022-09-13T04:21:34;4.38;;;2.03;;
70683;SDS011;58263;48.146;11.440;2022-09-13T04:24:00;5.18;;;2.08;;
70683;SDS011;58263;48.146;11.440;2022-09-13T04:26:25;1.95;;;1.80;;
70683;SDS011;58263;48.146;11.440;2022-09-13T04:28:51;5.00;;;2.70;;
70683;SDS011;58263;48.146;11.440;2022-09-13T04:31:17;3.92;;;2.45;;
70683;SDS011;58263;48.146;11.440;2022-09-13T04:33:42;2.25;;;2.00;;
70683;SDS011;58263;48.146;11.440;2022-09-13T04:36:08;3.60;;;2.00;;
70683;SDS011;58263;48.146;11.440;2022-09-13T04:38:33;2.43;;;2.23;;
70683;SDS011;58263;48.146;11.440;2022-09-13T04:40:58;2.53;;;2.03;;
70683;SDS011;58263;48.146;11.440;2022-09-13T04:43:23;2.43;;;2.10;;
70683;SDS011;58263;48.146;11.440;2022-09-13T04:45:49;3.25;;;2.30;;
70683;SDS011;58263;48.146;11.440;2022-09-13T04:48:15;2.00;;;1.85;;
70683;SDS011;58263;48.146;11.440;2022-09-13T04:50:41;3.78;;;2.03;;
70683;SDS011;58263;48.146;11.440;2022-09-13T04:53:07;2.92;;;2.25;;
70683;SDS011;58263;48.146;11.440;2022-09-13T04:55:32;2.30;;;2.08;;
70683;SDS011;58263;48.146;11.440;2022-09-13T04:57:57;6.93;;;3.20;;
70683;SDS011;58263;48.146;11.440;2022-09-13T05:00:22;3.50;;;2.60;;
70683;SDS011;58263;48.146;11.440;2022-09-13T05:02:53;3.72;;;2.10;;
70683;SDS011;58263;48.146;11.440;2022-09-13T05:05:20;2.85;;;1.80;;
70683;SDS011;58263;48.146;11.440;2022-09-13T05:07:48;4.18;;;1.90;;
70683;SDS011;58263;48.146;11.440;2022-09-13T05:10:14;2.92;;;1.83;;
70683;SDS011;58263;48.146;11.440;2022-09-13T05:12:39;4.95;;;2.42;;
70683;SDS011;58263;48.146;11.440;2022-09-13T05:15:05;3.50;;;1.77;;
70683;SDS011;58263;48.146;11.440;2022-09-13T05:17:31;4.10;;;1.77;;
70683;SDS011;58263;48.146;11.440;2022-09-13T05:19:56;3.27;;;2.03;;
70683;SDS011;58263;48.146;11.440;2022-09-13T05:22:21;2.10;;;1.90;;
70683;SDS011;58263;48.146;11.440;2022-09-13T05:24:46;2.93;;;2.00;;
70683;SDS011;58263;48.146;11.440;2022-09-13T05:27:12;2.93;;;2.03;;
70683;SDS011;58263;48.146;11.440;2022-09-13T05:29:37;2.50;;;2.23;;
70683;SDS011;58263;48.146;11.440;2022-09-13T05:32:02;4.47;;;1.90;;
70683;SDS011;58263;48.146;11.440;2022-09-13T05:34:28;2.08;;;1.88;;
70683;SDS011;58263;48.146;11.440;2022-09-13T05:36:53;3.78;;;2.10;;
70683;SDS011;58263;48.146;11.440;2022-09-13T05:39:18;2.27;;;1.97;;
70683;SDS011;58263;48.146;11.440;2022-09-13T05:41:46;2.17;;;1.52;;
70683;SDS011;58263;48.146;11.440;2022-09-13T05:44:11;4.28;;;2.22;;
70683;SDS011;58263;48.146;11.440;2022-09-13T05:46:37;2.90;;;1.88;;
70683;SDS011;58263;48.146;11.440;2022-09-13T05:49:02;2.90;;;2.08;;
70683;SDS011;58263;48.146;11.440;2022-09-13T05:51:27;4.95;;;2.47;;
70683;SDS011;58263;48.146;11.440;2022-09-13T05:53:53;2.57;;;2.27;;
70683;SDS011;58263;48.146;11.440;2022-09-13T05:56:20;4.95;;;2.05;;
70683;SDS011;58263;48.146;11.440;2022-09-13T05:58:47;14.80;;;6.80;;
70683;SDS011;58263;48.146;11.440;2022-09-13T06:01:14;7.60;;;3.88;;
70683;SDS011;58263;48.146;11.440;2022-09-13T06:03:41;8.30;;;3.45;;
70683;SDS011;58263;48.146;11.440;2022-09-13T06:06:07;5.03;;;2.47;;
70683;SDS011;58263;48.146;11.440;2022-09-13T06:08:33;3.58;;;2.60;;
70683;SDS011;58263;48.146;11.440;2022-09-13T06:11:02;4.25;;;1.98;;
70683;SDS011;58263;48.146;11.440;2022-09-13T06:13:29;3.05;;;1.77;;
70683;SDS011;58263;48.146;11.440;2022-09-13T06:15:55;5.13;;;1.63;;
70683;SDS011;58263;48.146;11.440;2022-09-13T06:18:22;1.77;;;1.40;;
70683;SDS011;58263;48.146;11.440;2022-09-13T06:20:48;2.03;;;1.90;;
70683;SDS011;58263;48.146;11.440;2022-09-13T06:23:14;3.08;;;2.15;;
70683;SDS011;58263;48.146;11.440;2022-09-13T06:25:40;2.28;;;1.77;;
70683;SDS011;58263;48.146;11.440;2022-09-13T06:28:05;3.15;;;1.73;;
70683;SDS011;58263;48.146;11.440;2022-09-13T06:30:31;1.70;;;1.60;;
70683;SDS011;58263;48.146;11.440;2022-09-13T06:32:56;2.65;;;1.55;;
70683;SDS011;58263;48.146;11.440;2022-09-13T06:35:21;2.88;;;1.60;;
70683;SDS011;58263;48.146;11.440;2022-09-13T06:37:47;3.45;;;1.50;;
70683;SDS011;58263;48.146;11.440;2022-09-13T06:40:12;2.95;;;1.20;;
70683;SDS011;58263;48.146;11.440;2022-09-13T06:42:38;1.50;;;1.40;;
70683;SDS011;58263;48.146;11.440;2022-09-13T06:45:04;1.60;;;1.50;;
70683;SDS011;58263;48.146;11.440;2022-09-13T06:47:30;3.25;;;1.55;;
70683;SDS011;58263;48.146;11.440;2022-09-13T06:49:56;5.10;;;3.10;;
70683;SDS011;58263;48.146;11.440;2022-09-13T06:52:21;5.97;;;1.40;;
70683;SDS011;58263;48.146;11.440;2022-09-13T06:54:47;1.52;;;1.40;;
70683;SDS011;58263;48.146;11.440;2022-09-13T06:57:12;1.83;;;1.60;;
70683;SDS011;58263;48.146;11.440;2022-09-13T06:59:37;1.90;;;1.23;;
70683;SDS011;58263;48.146;11.440;2022-09-13T07:02:03;1.77;;;1.33;;
70683;SDS011;58263;48.146;11.440;2022-09-13T07:04:28;1.17;;;1.00;;
70683;SDS011;58263;48.146;11.440;2022-09-13T07:06:55;2.47;;;1.40;;
70683;SDS011;58263;48.146;11.440;2022-09-13T07:09:22;1.05;;;1.00;;
70683;SDS011;58263;48.146;11.440;2022-09-13T07:11:48;1.55;;;1.13;;
70683;SDS011;58263;48.146;11.440;2022-09-13T07:14:16;2.95;;;1.20;;
70683;SDS011;58263;48.146;11.440;2022-09-13T07:16:45;1.35;;;1.25;;
70683;SDS011;58263;48.146;11.440;2022-09-13T07:19:12;1.65;;;1.17;;
70683;SDS011;58263;48.146;11.440;2022-09-13T07:21:41;1.38;;;1.27;;
70683;SDS011;58263;48.146;11.440;2022-09-13T07:24:08;0.95;;;0.95;;
70683;SDS011;58263;48.146;11.440;2022-09-13T07:26:34;1.00;;;1.00;;
70683;SDS011;58263;48.146;11.440;2022-09-13T07:29:00;1.00;;;1.00;;
70683;SDS011;58263;48.146;11.440;2022-09-13T07:31:30;9.45;;;4.88;;
70683;SDS011;58263;48.146;11.440;2022-09-13T07:33:58;2.90;;;1.67;;
70683;SDS011;58263;48.146;11.440;2022-09-13T07:36:29;1.67;;;1.30;;
70683;SDS011;58263;48.146;11.440;2022-09-13T07:38:56;2.50;;;1.25;;
70683;SDS011;58263;48.146;11.440;2022-09-13T07:41:23;1.73;;;1.17;;
70683;SDS011;58263;48.146;11.440;2022-09-13T07:43:49;1.20;;;1.15;;
70683;SDS011;58263;48.146;11.440;2022-09-13T07:46:19;0.73;;;0.73;;
70683;SDS011;58263;48.146;11.440;2022-09-13T07:48:50;2.00;;;1.13;;
70683;SDS011;58263;48.146;11.440;2022-09-13T07:51:18;2.03;;;1.00;;
70683;SDS011;58263;48.146;11.440;2022-09-13T07:53:45;2.40;;;1.33;;
70683;SDS011;58263;48.146;11.440;2022-09-13T07:56:13;0.90;;;0.90;;
70683;SDS011;58263;48.146;11.440;2022-09-13T07:59:00;0.88;;;0.88;;
70683;SDS011;58263;48.146;11.440;2022-09-13T08:01:28;2.63;;;1.05;;
70683;SDS011;58263;48.146;11.440;2022-09-13T08:03:59;9.13;;;4.90;;
70683;SDS011;58263;48.146;11.440;2022-09-13T08:06:26;4.05;;;2.67;;
70683;SDS011;58263;48.146;11.440;2022-09-13T08:08:53;1.35;;;1.08;;
70683;SDS011;58263;48.146;11.440;2022-09-13T08:11:23;1.10;;;1.00;;
70683;SDS011;58263;48.146;11.440;2022-09-13T08:13:51;1.33;;;0.90;;
70683;SDS011;58263;48.146;11.440;2022-09-13T08:16:18;1.38;;;1.10;;
70683;SDS011;58263;48.146;11.440;2022-09-13T08:18:46;1.42;;;1.20;;
70683;SDS011;58263;48.146;11.440;2022-09-13T08:21:13;0.93;;;0.93;;
70683;SDS011;58263;48.146;11.440;2022-09-13T08:23:38;2.50;;;0.85;;
70683;SDS011;58263;48.146;11.440;2022-09-13T08:26:04;1.75;;;1.00;;
70683;SDS011;58263;48.146;11.440;2022-09-13T08:28:32;1.42;;;1.08;;
70683;SDS011;58263;48.146;11.440;2022-09-13T08:31:05;6.00;;;3.20;;
70683;SDS011;58263;48.146;11.440;2022-09-13T08:33:33;2.35;;;1.20;;
70683;SDS011;58263;48.146;11.440;2022-09-13T08:35:59;2.90;;;1.10;;
70683;SDS011;58263;48.146;11.440;2022-09-13T08:38:25;2.28;;;1.38;;
70683;SDS011;58263;48.146;11.440;2022-09-13T08:44:05;1.58;;;1.20;;
70683;SDS011;58263;48.146;11.440;2022-09-13T08:46:33;1.65;;;1.55;;
70683;SDS011;58263;48.146;11.440;2022-09-13T08:49:04;4.00;;;1.48;;
70683;SDS011;58263;48.146;11.440;2022-09-13T08:51:36;2.65;;;1.23;;
70683;SDS011;58263;48.146;11.440;2022-09-13T08:54:10;2.28;;;1.15;;
70683;SDS011;58263;48.146;11.440;2022-09-13T08:56:39;1.05;;;0.98;;
70683;SDS011;58263;48.146;11.440;2022-09-13T09:04:53;2.38;;;1.20;;
70683;SDS011;58263;48.146;11.440;2022-09-13T09:07:31;4.43;;;1.45;;
70683;SDS011;58263;48.146;11.440;2022-09-13T09:10:10;1.10;;;0.73;;
70683;SDS011;58263;48.146;11.440;2022-09-13T09:15:19;2.25;;;1.00;;
70683;SDS011;58263;48.146;11.440;2022-09-13T09:20:45;3.10;;;1.20;;
70683;SDS011;58263;48.146;11.440;2022-09-13T09:23:14;3.67;;;1.00;;
70683;SDS011;58263;48.146;11.440;2022-09-13T09:28:58;11.70;;;1.60;;
70683;SDS011;58263;48.146;11.440;2022-09-13T09:39:32;3.58;;;0.95;;
70683;SDS011;58263;48.146;11.440;2022-09-13T09:42:03;1.25;;;0.75;;
70683;SDS011;58263;48.146;11.440;2022-09-13T09:44:34;3.08;;;0.98;;
70683;SDS011;58263;48.146;11.440;2022-09-13T09:47:03;1.10;;;0.95;;
70683;SDS011;58263;48.146;11.440;2022-09-13T09:52:36;1.35;;;1.02;;
70683;SDS011;58263;48.146;11.440;2022-09-13T09:55:50;1.02;;;0.90;;
70683;SDS011;58263;48.146;11.440;2022-09-13T09:58:08;1.52;;;1.13;;
70683;SDS011;58263;48.146;11.440;2022-09-13T10:00:39;0.93;;;0.70;;
70683;SDS011;58263;48.146;11.440;2022-09-13T10:03:17;0.82;;;0.82;;
70683;SDS011;58263;48.146;11.440;2022-09-13T10:06:10;1.75;;;0.82;;
70683;SDS011;58263;48.146;11.440;2022-09-13T10:08:42;2.53;;;0.93;;
70683;SDS011;58263;48.146;11.440;2022-09-13T10:11:11;1.63;;;1.20;;
70683;SDS011;58263;48.146;11.440;2022-09-13T10:13:36;1.00;;;1.00;;
70683;SDS011;58263;48.146;11.440;2022-09-13T10:18:47;1.42;;;1.10;;
70683;SDS011;58263;48.146;11.440;2022-09-13T10:23:44;1.40;;;0.90;;
70683;SDS011;58263;48.146;11.440;2022-09-13T10:26:18;2.22;;;1.00;;
70683;SDS011;58263;48.146;11.440;2022-09-13T10:28:46;0.95;;;0.93;;
70683;SDS011;58263;48.146;11.440;2022-09-13T10:31:28;0.90;;;0.90;;
70683;SDS011;58263;48.146;11.440;2022-09-13T10:33:59;2.20;;;1.00;;
70683;SDS011;58263;48.146;11.440;2022-09-13T10:38:58;6.85;;;3.45;;
70683;SDS011;58263;48.146;11.440;2022-09-13T10:41:27;1.27;;;1.00;;
70683;SDS011;58263;48.146;11.440;2022-09-13T10:43:59;4.78;;;1.17;;
70683;SDS011;58263;48.146;11.440;2022-09-13T10:46:28;1.05;;;0.98;;
70683;SDS011;58263;48.146;11.440;2022-09-13T10:48:56;1.15;;;1.05;;
70683;SDS011;58263;48.146;11.440;2022-09-13T10:51:28;2.55;;;1.23;;
70683;SDS011;58263;48.146;11.440;2022-09-13T10:56:39;1.25;;;0.90;;
70683;SDS011;58263;48.146;11.440;2022-09-13T10:59:24;1.35;;;0.77;;
70683;SDS011;58263;48.146;11.440;2022-09-13T11:05:02;2.40;;;1.45;;
70683;SDS011;58263;48.146;11.440;2022-09-13T11:10:37;2.78;;;2.58;;
70683;SDS011;58263;48.146;11.440;2022-09-13T11:18:55;1.30;;;1.20;;
70683;SDS011;58263;48.146;11.440;2022-09-13T11:22:13;2.30;;;1.35;;
70683;SDS011;58263;48.146;11.440;2022-09-13T11:30:17;0.77;;;0.77;;
70683;SDS011;58263;48.146;11.440;2022-09-13T11:32:48;2.83;;;0.73;;
70683;SDS011;58263;48.146;11.440;2022-09-13T11:37:48;1.17;;;1.00;;
70683;SDS011;58263;48.146;11.440;2022-09-13T11:40:38;1.98;;;0.77;;
70683;SDS011;58263;48.146;11.440;2022-09-13T11:48:36;4.38;;;1.08;;
70683;SDS011;58263;48.146;11.440;2022-09-13T11:54:01;0.80;;;0.70;;
70683;SDS011;58263;48.146;11.440;2022-09-13T11:56:41;4.50;;;1.10;;
70683;SDS011;58263;48.146;11.440;2022-09-13T11:59:17;2.80;;;1.10;;
70683;SDS011;58263;48.146;11.440;2022-09-13T12:01:46;3.03;;;1.00;;
70683;SDS011;58263;48.146;11.440;2022-09-13T12:04:23;0.90;;;0.80;;
70683;SDS011;58263;48.146;11.440;2022-09-13T12:06:57;1.58;;;0.77;;
70683;SDS011;58263;48.146;11.440;2022-09-13T12:09:46;0.80;;;0.68;;
70683;SDS011;58263;48.146;11.440;2022-09-13T12:12:19;1.13;;;0.90;;
70683;SDS011;58263;48.146;11.440;2022-09-13T12:14:51;1.90;;;0.73;;
70683;SDS011;58263;48.146;11.440;2022-09-13T12:17:40;0.88;;;0.88;;
70683;SDS011;58263;48.146;11.440;2022-09-13T12:22:57;2.03;;;0.90;;
70683;SDS011;58263;48.146;11.440;2022-09-13T12:25:38;4.63;;;0.90;;
70683;SDS011;58263;48.146;11.440;2022-09-13T12:28:12;1.00;;;0.90;;
70683;SDS011;58263;48.146;11.440;2022-09-13T12:31:17;1.25;;;1.20;;
70683;SDS011;58263;48.146;11.440;2022-09-13T12:33:43;3.53;;;1.38;;
70683;SDS011;58263;48.146;11.440;2022-09-13T12:42:09;3.00;;;1.00;;
70683;SDS011;58263;48.146;11.440;2022-09-13T12:56:38;1.92;;;1.52;;
70683;SDS011;58263;48.146;11.440;2022-09-13T13:01:52;1.23;;;0.90;;
70683;SDS011;58263;48.146;11.440;2022-09-13T13:06:47;1.52;;;0.93;;
70683;SDS011;58263;48.146;11.440;2022-09-13T13:11:55;2.30;;;0.95;;
70683;SDS011;58263;48.146;11.440;2022-09-13T13:14:26;1.92;;;0.95;;
70683;SDS011;58263;48.146;11.440;2022-09-13T13:23:12;2.25;;;0.80;;
70683;SDS011;58263;48.146;11.440;2022-09-13T13:25:57;1.45;;;1.00;;
70683;SDS011;58263;48.146;11.440;2022-09-13T13:33:50;1.42;;;0.93;;
70683;SDS011;58263;48.146;11.440;2022-09-13T13:38:47;0.90;;;0.90;;
70683;SDS011;58263;48.146;11.440;2022-09-13T13:44:53;2.25;;;0.93;;
70683;SDS011;58263;48.146;11.440;2022-09-13T13:46:47;2.33;;;0.63;;
70683;SDS011;58263;48.146;11.440;2022-09-13T13:59:49;0.77;;;0.77;;
70683;SDS011;58263;48.146;11.440;2022-09-13T14:02:20;2.08;;;1.00;;
70683;SDS011;58263;48.146;11.440;2022-09-13T14:04:58;1.15;;;0.88;;
70683;SDS011;58263;48.146;11.440;2022-09-13T14:15:55;1.05;;;0.80;;
70683;SDS011;58263;48.146;11.440;2022-09-13T14:21:28;0.50;;;0.50;;
70683;SDS011;58263;48.146;11.440;2022-09-13T14:24:08;2.25;;;0.80;;
70683;SDS011;58263;48.146;11.440;2022-09-13T14:26:47;1.10;;;1.05;;
70683;SDS011;58263;48.146;11.440;2022-09-13T14:29:16;2.22;;;1.00;;
70683;SDS011;58263;48.146;11.440;2022-09-13T14:31:49;3.75;;;1.23;;
70683;SDS011;58263;48.146;11.440;2022-09-13T14:34:20;1.40;;;0.82;;
70683;SDS011;58263;48.146;11.440;2022-09-13T14:36:54;1.55;;;0.73;;
70683;SDS011;58263;48.146;11.440;2022-09-13T14:39:22;1.55;;;0.90;;
70683;SDS011;58263;48.146;11.440;2022-09-13T14:41:48;1.85;;;0.77;;
70683;SDS011;58263;48.146;11.440;2022-09-13T14:44:24;4.28;;;0.80;;
70683;SDS011;58263;48.146;11.440;2022-09-13T14:46:54;1.65;;;1.10;;
70683;SDS011;58263;48.146;11.440;2022-09-13T14:49:25;1.33;;;0.80;;
70683;SDS011;58263;48.146;11.440;2022-09-13T14:51:58;1.38;;;0.88;;
70683;SDS011;58263;48.146;11.440;2022-09-13T14:54:38;2.50;;;0.77;;
70683;SDS011;58263;48.146;11.440;2022-09-13T14:57:09;3.88;;;1.25;;
70683;SDS011;58263;48.146;11.440;2022-09-13T14:59:47;1.20;;;0.95;;
70683;SDS011;58263;48.146;11.440;2022-09-13T15:02:20;1.27;;;0.93;;
70683;SDS011;58263;48.146;11.440;2022-09-13T15:04:54;2.60;;;1.00;;
70683;SDS011;58263;48.146;11.440;2022-09-13T15:07:29;2.53;;;0.73;;
70683;SDS011;58263;48.146;11.440;2022-09-13T15:10:42;1.58;;;1.05;;
70683;SDS011;58263;48.146;11.440;2022-09-13T15:15:35;1.42;;;0.88;;
70683;SDS011;58263;48.146;11.440;2022-09-13T15:18:04;0.90;;;0.77;;
70683;SDS011;58263;48.146;11.440;2022-09-13T15:23:28;3.28;;;0.82;;
70683;SDS011;58263;48.146;11.440;2022-09-13T15:31:05;2.63;;;0.70;;
70683;SDS011;58263;48.146;11.440;2022-09-13T15:33:32;2.63;;;0.98;;
70683;SDS011;58263;48.146;11.440;2022-09-13T15:36:32;2.13;;;1.05;;
70683;SDS011;58263;48.146;11.440;2022-09-13T15:38:57;2.22;;;1.00;;
70683;SDS011;58263;48.146;11.440;2022-09-13T15:41:33;1.48;;;1.00;;
70683;SDS011;58263;48.146;11.440;2022-09-13T15:43:59;1.30;;;1.00;;
70683;SDS011;58263;48.146;11.440;2022-09-13T15:46:26;1.02;;;0.80;;
70683;SDS011;58263;48.146;11.440;2022-09-13T15:48:53;3.15;;;1.70;;
70683;SDS011;58263;48.146;11.440;2022-09-13T15:51:27;1.40;;;1.30;;
70683;SDS011;58263;48.146;11.440;2022-09-13T15:53:52;3.73;;;1.17;;
70683;SDS011;58263;48.146;11.440;2022-09-13T15:56:23;1.55;;;1.13;;
70683;SDS011;58263;48.146;11.440;2022-09-13T15:58:54;2.10;;;1.13;;
70683;SDS011;58263;48.146;11.440;2022-09-13T16:01:20;1.60;;;1.50;;
70683;SDS011;58263;48.146;11.440;2022-09-13T16:03:45;1.55;;;1.38;;
70683;SDS011;58263;48.146;11.440;2022-09-13T16:06:11;2.30;;;1.30;;
70683;SDS011;58263;48.146;11.440;2022-09-13T16:08:36;1.95;;;1.25;;
70683;SDS011;58263;48.146;11.440;2022-09-13T16:11:02;1.55;;;1.20;;
70683;SDS011;58263;48.146;11.440;2022-09-13T16:13:28;1.30;;;1.10;;
70683;SDS011;58263;48.146;11.440;2022-09-13T16:15:54;3.60;;;1.43;;
70683;SDS011;58263;48.146;11.440;2022-09-13T16:18:21;1.05;;;1.05;;
70683;SDS011;58263;48.146;11.440;2022-09-13T16:20:47;1.42;;;1.33;;
70683;SDS011;58263;48.146;11.440;2022-09-13T16:23:12;1.55;;;1.42;;
70683;SDS011;58263;48.146;11.440;2022-09-13T16:25:37;1.50;;;1.40;;
70683;SDS011;58263;48.146;11.440;2022-09-13T16:28:03;1.40;;;1.20;;
70683;SDS011;58263;48.146;11.440;2022-09-13T16:30:29;1.50;;;1.40;;
70683;SDS011;58263;48.146;11.440;2022-09-13T16:32:55;2.22;;;1.50;;
70683;SDS011;58263;48.146;11.440;2022-09-13T16:35:21;2.08;;;1.30;;
70683;SDS011;58263;48.146;11.440;2022-09-13T16:37:50;3.08;;;1.33;;
70683;SDS011;58263;48.146;11.440;2022-09-13T16:40:17;3.30;;;1.40;;
70683;SDS011;58263;48.146;11.440;2022-09-13T16:42:43;3.35;;;1.73;;
70683;SDS011;58263;48.146;11.440;2022-09-13T16:45:09;1.55;;;1.45;;
70683;SDS011;58263;48.146;11.440;2022-09-13T16:47:35;3.88;;;1.50;;
70683;SDS011;58263;48.146;11.440;2022-09-13T16:50:02;2.58;;;1.50;;
70683;SDS011;58263;48.146;11.440;2022-09-13T16:52:28;3.50;;;1.60;;
70683;SDS011;58263;48.146;11.440;2022-09-13T16:54:54;2.72;;;1.83;;
70683;SDS011;58263;48.146;11.440;2022-09-13T16:57:20;2.47;;;1.80;;
70683;SDS011;58263;48.146;11.440;2022-09-13T16:59:45;3.97;;;1.95;;
70683;SDS011;58263;48.146;11.440;2022-09-13T17:02:12;5.22;;;2.08;;
70683;SDS011;58263;48.146;11.440;2022-09-13T17:04:38;4.60;;;2.22;;
70683;SDS011;58263;48.146;11.440;2022-09-13T17:07:03;3.90;;;1.83;;
70683;SDS011;58263;48.146;11.440;2022-09-13T17:09:30;7.00;;;2.10;;
70683;SDS011;58263;48.146;11.440;2022-09-13T17:11:56;5.88;;;1.85;;
70683;SDS011;58263;48.146;11.440;2022-09-13T17:14:22;4.38;;;1.90;;
70683;SDS011;58263;48.146;11.440;2022-09-13T17:16:49;5.85;;;1.98;;
70683;SDS011;58263;48.146;11.440;2022-09-13T17:19:20;3.33;;;1.80;;
70683;SDS011;58263;48.146;11.440;2022-09-13T17:21:48;5.32;;;2.13;;
70683;SDS011;58263;48.146;11.440;2022-09-13T17:24:14;4.82;;;1.80;;
70683;SDS011;58263;48.146;11.440;2022-09-13T17:26:40;4.10;;;2.20;;
70683;SDS011;58263;48.146;11.440;2022-09-13T17:29:06;5.50;;;2.00;;
70683;SDS011;58263;48.146;11.440;2022-09-13T17:31:32;4.67;;;2.20;;
70683;SDS011;58263;48.146;11.440;2022-09-13T17:33:57;3.72;;;1.83;;
70683;SDS011;58263;48.146;11.440;2022-09-13T17:36:22;4.87;;;2.27;;
70683;SDS011;58263;48.146;11.440;2022-09-13T17:38:48;2.45;;;1.88;;
70683;SDS011;58263;48.146;11.440;2022-09-13T17:41:19;1.80;;;1.70;;
70683;SDS011;58263;48.146;11.440;2022-09-13T17:43:45;3.20;;;1.60;;
70683;SDS011;58263;48.146;11.440;2022-09-13T17:46:15;3.75;;;1.75;;
70683;SDS011;58263;48.146;11.440;2022-09-13T17:48:45;4.35;;;1.80;;
70683;SDS011;58263;48.146;11.440;2022-09-13T17:51:11;4.05;;;2.03;;
70683;SDS011;58263;48.146;11.440;2022-09-13T17:53:45;2.80;;;1.75;;
70683;SDS011;58263;48.146;11.440;2022-09-13T17:56:16;4.47;;;2.03;;
70683;SDS011;58263;48.146;11.440;2022-09-13T17:58:53;3.00;;;1.80;;
70683;SDS011;58263;48.146;11.440;2022-09-13T18:01:19;5.05;;;2.25;;
70683;SDS011;58263;48.146;11.440;2022-09-13T18:03:44;3.87;;;1.90;;
70683;SDS011;58263;48.146;11.440;2022-09-13T18:06:10;3.10;;;1.80;;
70683;SDS011;58263;48.146;11.440;2022-09-13T18:08:36;2.83;;;2.00;;
70683;SDS011;58263;48.146;11.440;2022-09-13T18:13:29;5.03;;;2.35;;